createdAt,value
2018-09-19T00:01:54.816Z,12.20
2018-09-19T00:04:22.865Z,12.10
2018-09-19T00:06:50.869Z,12.14
2018-09-19T00:09:18.918Z,12.15
2018-09-19T00:11:47.024Z,12.28
2018-09-19T00:14:15.112Z,12.45
2018-09-19T00:16:43.176Z,12.40
2018-09-19T00:19:11.160Z,12.44
2018-09-19T00:21:39.317Z,12.50
2018-09-19T00:24:07.390Z,12.41
2018-09-19T00:26:35.440Z,12.36
2018-09-19T00:29:03.432Z,12.40
2018-09-19T00:31:31.572Z,12.45
2018-09-19T00:33:59.560Z,12.75
2018-09-19T00:36:27.565Z,12.62
2018-09-19T00:38:55.633Z,12.33
2018-09-19T00:41:23.644Z,12.27
2018-09-19T00:43:51.874Z,12.36
2018-09-19T00:46:20.405Z,12.34
2018-09-19T00:48:48.524Z,12.32
2018-09-19T00:51:16.582Z,12.19
2018-09-19T00:53:44.835Z,12.25
2018-09-19T00:56:12.880Z,12.12
2018-09-19T00:58:40.881Z,11.99
2018-09-19T01:01:09.085Z,11.93
2018-09-19T01:03:37.186Z,11.88
2018-09-19T01:06:05.249Z,11.86
2018-09-19T01:08:33.268Z,11.91
2018-09-19T01:11:01.358Z,11.81
2018-09-19T01:13:29.388Z,11.69
2018-09-19T01:15:57.514Z,11.64
2018-09-19T01:18:25.793Z,11.61
2018-09-19T01:20:53.832Z,11.58
2018-09-19T01:23:21.905Z,11.54
2018-09-19T01:25:50.068Z,11.49
2018-09-19T01:28:18.154Z,11.49
2018-09-19T01:30:46.272Z,11.41
2018-09-19T01:33:14.739Z,11.40
2018-09-19T01:35:42.793Z,11.31
2018-09-19T01:38:10.832Z,11.27
2018-09-19T01:40:38.999Z,11.24
2018-09-19T01:43:07.163Z,11.20
2018-09-19T01:45:35.197Z,11.22
2018-09-19T01:48:03.276Z,11.12
2018-09-19T01:50:31.303Z,11.17
2018-09-19T01:52:59.418Z,11.15
2018-09-19T01:55:27.599Z,11.17
2018-09-19T01:57:55.631Z,11.12
2018-09-19T02:00:23.754Z,11.12
2018-09-19T02:02:51.860Z,11.13
2018-09-19T02:05:19.934Z,11.10
2018-09-19T02:07:47.935Z,11.01
2018-09-19T02:10:16.121Z,10.95
2018-09-19T02:12:44.288Z,10.90
2018-09-19T02:15:12.293Z,10.87
2018-09-19T02:17:40.341Z,10.81
2018-09-19T02:20:08.481Z,10.85
2018-09-19T02:22:36.572Z,10.86
2018-09-19T02:25:04.640Z,10.86
2018-09-19T02:27:32.661Z,10.80
2018-09-19T02:30:00.757Z,10.83
2018-09-19T02:32:28.901Z,10.78
2018-09-19T02:34:56.933Z,10.73
2018-09-19T02:37:25.012Z,10.82
2018-09-19T02:39:53.099Z,10.87
2018-09-19T02:42:21.264Z,10.88
2018-09-19T02:44:49.310Z,10.92
2018-09-19T02:47:17.354Z,10.88
2018-09-19T02:49:45.509Z,10.93
2018-09-19T02:52:13.684Z,10.86
2018-09-19T02:54:41.738Z,10.85
2018-09-19T02:57:09.780Z,10.84
2018-09-19T02:59:37.759Z,10.87
2018-09-19T03:02:06.021Z,10.83
2018-09-19T03:04:34.071Z,10.75
2018-09-19T03:07:02.032Z,10.86
2018-09-19T03:09:30.081Z,10.77
2018-09-19T03:11:58.247Z,10.77
2018-09-19T03:14:26.376Z,10.73
2018-09-19T03:16:54.465Z,10.75
2018-09-19T03:19:22.511Z,10.70
2018-09-19T03:21:50.573Z,10.67
2018-09-19T03:24:18.765Z,10.68
2018-09-19T03:26:46.784Z,10.67
2018-09-19T03:29:14.838Z,10.64
2018-09-19T03:31:43.074Z,10.60
2018-09-19T03:34:11.133Z,10.54
2018-09-19T03:36:39.404Z,10.62
2018-09-19T03:39:09.768Z,10.50
2018-09-19T03:41:38.795Z,10.34
2018-09-19T03:44:08.181Z,10.28
2018-09-19T03:46:37.538Z,10.21
2018-09-19T03:49:06.378Z,10.08
2018-09-19T03:51:34.881Z,9.94
2018-09-19T03:54:03.394Z,9.92
2018-09-19T03:56:31.873Z,9.87
2018-09-19T03:59:00.278Z,9.86
2018-09-19T04:01:28.878Z,9.98
2018-09-19T04:03:57.332Z,10.03
2018-09-19T04:06:25.795Z,10.08
2018-09-19T04:08:54.162Z,10.12
2018-09-19T04:11:22.708Z,10.11
2018-09-19T04:13:51.171Z,10.15
2018-09-19T04:16:19.526Z,10.15
2018-09-19T04:18:48.072Z,10.18
2018-09-19T04:21:16.417Z,10.19
2018-09-19T04:23:44.726Z,10.25
2018-09-19T04:26:13.015Z,10.30
2018-09-19T04:28:41.991Z,10.39
2018-09-19T04:31:10.369Z,10.46
2018-09-19T04:33:38.767Z,10.53
2018-09-19T04:36:07.023Z,10.50
2018-09-19T04:38:35.377Z,10.49
2018-09-19T04:41:03.670Z,10.59
2018-09-19T04:43:32.133Z,10.65
2018-09-19T04:46:00.411Z,10.69
2018-09-19T04:48:28.816Z,10.76
2018-09-19T04:50:57.267Z,10.82
2018-09-19T04:53:25.666Z,10.87
2018-09-19T04:55:53.977Z,11.02
2018-09-19T04:58:22.369Z,11.17
2018-09-19T05:00:53.016Z,11.64
2018-09-19T05:03:22.696Z,12.46
2018-09-19T05:05:52.492Z,13.43
2018-09-19T05:08:21.478Z,14.18
2018-09-19T05:10:51.957Z,14.16
2018-09-19T05:13:22.191Z,14.22
2018-09-19T05:15:52.120Z,14.24
2018-09-19T05:18:20.470Z,14.31
2018-09-19T05:20:48.777Z,14.31
2018-09-19T05:23:17.122Z,14.38
2018-09-19T05:25:45.412Z,14.02
2018-09-19T05:28:13.764Z,13.62
2018-09-19T05:30:42.187Z,13.65
2018-09-19T05:33:10.644Z,13.71
2018-09-19T05:35:39.066Z,13.73
2018-09-19T05:38:07.852Z,13.82
2018-09-19T05:40:36.140Z,14.44
2018-09-19T05:43:04.597Z,14.41
2018-09-19T05:45:32.990Z,14.60
2018-09-19T05:48:01.496Z,14.33
2018-09-19T05:50:29.871Z,14.25
2018-09-19T05:52:58.297Z,14.35
2018-09-19T05:55:26.641Z,14.79
2018-09-19T05:57:55.171Z,14.80
2018-09-19T06:00:23.606Z,14.69
2018-09-19T06:02:52.005Z,14.66
2018-09-19T06:05:20.170Z,14.97
2018-09-19T06:07:48.869Z,14.96
2018-09-19T06:10:17.692Z,15.10
2018-09-19T06:12:47.467Z,15.36
2018-09-19T06:15:16.055Z,15.71
2018-09-19T06:17:44.643Z,16.25
2018-09-19T06:20:13.335Z,16.43
2018-09-19T06:22:42.759Z,16.93
2018-09-19T06:25:12.176Z,17.21
2018-09-19T06:27:40.970Z,17.15
2018-09-19T06:30:09.797Z,17.26
2018-09-19T06:32:38.540Z,17.41
2018-09-19T06:35:07.461Z,17.42
2018-09-19T06:37:35.988Z,17.40
2018-09-19T06:40:04.491Z,17.57
2018-09-19T06:42:33.154Z,17.78
2018-09-19T06:45:01.633Z,18.06
2018-09-19T06:47:30.102Z,18.14
2018-09-19T06:49:58.562Z,18.42
2018-09-19T06:52:27.132Z,18.32
2018-09-19T06:54:55.521Z,17.95
2018-09-19T06:57:23.860Z,18.07
2018-09-19T06:59:52.452Z,18.31
2018-09-19T07:02:21.067Z,18.18
2018-09-19T07:04:49.682Z,18.25
2018-09-19T07:07:18.195Z,18.48
2018-09-19T07:09:47.417Z,18.45
2018-09-19T07:12:16.004Z,18.64
2018-09-19T07:14:44.417Z,18.76
2018-09-19T07:17:12.828Z,19.17
2018-09-19T07:19:41.479Z,18.91
2018-09-19T07:22:10.232Z,19.11
2018-09-19T07:24:38.720Z,19.14
2018-09-19T07:27:07.770Z,19.43
2018-09-19T07:29:36.216Z,19.51
2018-09-19T07:32:04.805Z,19.64
2018-09-19T07:34:33.830Z,19.78
2018-09-19T07:37:02.217Z,20.22
2018-09-19T07:39:30.722Z,20.10
2018-09-19T07:41:59.332Z,20.15
2018-09-19T07:44:27.936Z,20.25
2018-09-19T07:46:56.409Z,20.03
2018-09-19T07:49:24.961Z,20.04
2018-09-19T07:51:53.936Z,20.23
2018-09-19T07:54:22.621Z,20.08
2018-09-19T07:56:51.179Z,20.60
2018-09-19T07:59:20.003Z,20.90
2018-09-19T08:01:48.551Z,21.27
2018-09-19T08:04:16.973Z,21.38
2018-09-19T08:06:45.867Z,21.40
2018-09-19T08:09:14.813Z,21.15
2018-09-19T08:11:43.359Z,21.57
2018-09-19T08:14:11.949Z,21.47
2018-09-19T08:16:40.437Z,22.13
2018-09-19T08:19:08.978Z,21.96
2018-09-19T08:21:37.440Z,22.25
2018-09-19T08:24:06.109Z,22.17
2018-09-19T08:26:35.082Z,22.69
2018-09-19T08:29:03.729Z,22.90
2018-09-19T08:31:32.151Z,22.66
2018-09-19T08:34:00.681Z,23.15
2018-09-19T08:36:29.455Z,23.14
2018-09-19T08:38:58.069Z,23.15
2018-09-19T08:41:26.549Z,23.16
2018-09-19T08:43:55.502Z,22.95
2018-09-19T08:46:23.967Z,23.26
2018-09-19T08:48:52.872Z,23.26
2018-09-19T08:51:21.699Z,23.59
2018-09-19T08:53:50.165Z,23.69
2018-09-19T08:56:19.092Z,24.07
2018-09-19T08:58:48.304Z,23.51
2018-09-19T09:01:16.818Z,23.43
2018-09-19T09:03:45.655Z,23.84
2018-09-19T09:06:14.097Z,23.72
2018-09-19T09:08:42.225Z,23.86
2018-09-19T09:11:10.470Z,23.58
2018-09-19T09:13:38.622Z,23.71
2018-09-19T09:16:07.072Z,23.96
2018-09-19T09:18:35.294Z,23.61
2018-09-19T09:21:03.499Z,24.03
2018-09-19T09:23:31.769Z,24.14
2018-09-19T09:26:00.298Z,24.45
2018-09-19T09:28:28.567Z,24.12
2018-09-19T09:30:56.902Z,24.16
2018-09-19T09:33:25.274Z,24.79
2018-09-19T09:35:53.487Z,25.02
2018-09-19T09:38:21.731Z,24.84
2018-09-19T09:40:49.819Z,24.94
2018-09-19T09:43:18.016Z,25.26
2018-09-19T09:45:46.136Z,25.44
2018-09-19T09:48:14.248Z,24.98
2018-09-19T09:50:42.550Z,24.44
2018-09-19T09:53:10.772Z,24.64
2018-09-19T09:55:38.930Z,25.08
2018-09-19T09:58:07.305Z,25.39
2018-09-19T10:00:41.666Z,25.46
2018-09-19T10:03:10.867Z,24.97
2018-09-19T10:05:39.149Z,25.16
2018-09-19T10:08:07.678Z,25.03
2018-09-19T10:10:36.263Z,25.63
2018-09-19T10:13:04.910Z,26.05
2018-09-19T10:15:33.460Z,26.12
2018-09-19T10:18:01.940Z,26.26
2018-09-19T10:20:30.544Z,26.15
2018-09-19T10:22:59.376Z,25.91
2018-09-19T10:25:28.034Z,25.74
2018-09-19T10:27:56.709Z,25.76
2018-09-19T10:30:25.413Z,26.41
2018-09-19T10:32:54.506Z,26.79
2018-09-19T10:35:23.059Z,27.10
2018-09-19T10:37:51.761Z,26.91
2018-09-19T10:40:20.520Z,26.40
2018-09-19T10:42:48.992Z,25.64
2018-09-19T10:45:17.512Z,25.54
2018-09-19T10:47:46.227Z,25.47
2018-09-19T10:50:14.751Z,25.07
2018-09-19T10:52:43.572Z,24.87
2018-09-19T10:55:12.099Z,25.23
2018-09-19T10:57:40.551Z,25.70
2018-09-19T11:00:08.977Z,25.46
2018-09-19T11:02:37.653Z,25.68
2018-09-19T11:05:06.030Z,25.90
2018-09-19T11:07:34.472Z,25.98
2018-09-19T11:10:02.926Z,25.82
2018-09-19T11:12:31.514Z,25.53
2018-09-19T11:15:00.045Z,25.78
2018-09-19T11:17:28.362Z,26.04
2018-09-19T11:19:56.906Z,26.24
2018-09-19T11:22:25.410Z,26.62
2018-09-19T11:24:53.849Z,26.29
2018-09-19T11:27:22.846Z,26.43
2018-09-19T11:29:51.827Z,26.54
2018-09-19T11:32:19.925Z,26.44
2018-09-19T11:34:48.118Z,26.53
2018-09-19T11:37:16.223Z,26.47
2018-09-19T11:39:44.308Z,26.77
2018-09-19T11:42:12.415Z,26.26
2018-09-19T11:44:41.645Z,25.66
2018-09-19T11:47:09.912Z,25.50
2018-09-19T11:49:37.987Z,25.55
2018-09-19T11:52:06.145Z,25.66
2018-09-19T11:54:34.465Z,25.67
2018-09-19T11:57:02.868Z,25.76
2018-09-19T11:59:30.991Z,26.07
2018-09-19T12:01:59.147Z,25.99
2018-09-19T12:04:27.385Z,25.71
2018-09-19T12:06:55.703Z,25.69
2018-09-19T12:09:23.976Z,25.87
2018-09-19T12:11:52.064Z,26.26
2018-09-19T12:14:20.201Z,26.12
2018-09-19T12:16:48.760Z,25.98
2018-09-19T12:19:17.535Z,26.19
2018-09-19T12:21:46.068Z,26.37
2018-09-19T12:24:14.681Z,26.25
2018-09-19T12:26:43.299Z,26.18
2018-09-19T12:29:11.879Z,26.42
2018-09-19T12:31:40.835Z,26.57
2018-09-19T12:34:09.523Z,26.41
2018-09-19T12:36:37.996Z,26.60
2018-09-19T12:39:08.766Z,26.51
2018-09-19T12:41:37.651Z,26.39
2018-09-19T12:44:06.583Z,26.45
2018-09-19T12:46:35.414Z,26.08
2018-09-19T12:49:04.144Z,26.25
2018-09-19T12:51:32.602Z,26.49
2018-09-19T12:54:01.343Z,26.27
2018-09-19T12:56:29.944Z,26.21
2018-09-19T12:58:58.932Z,26.13
2018-09-19T13:01:27.672Z,26.21
2018-09-19T13:03:57.244Z,26.13
2018-09-19T13:06:26.061Z,26.20
2018-09-19T13:08:54.807Z,25.98
2018-09-19T13:11:24.116Z,25.82
2018-09-19T13:13:53.650Z,25.77
2018-09-19T13:16:22.856Z,25.93
2018-09-19T13:18:51.610Z,26.05
2018-09-19T13:21:21.597Z,26.13
2018-09-19T13:23:50.455Z,26.03
2018-09-19T13:26:18.986Z,25.89
2018-09-19T13:28:48.026Z,25.86
2018-09-19T13:31:16.442Z,25.82
2018-09-19T13:33:45.280Z,25.85
2018-09-19T13:36:13.766Z,25.59
2018-09-19T13:38:42.560Z,25.58
2018-09-19T13:41:11.448Z,25.71
2018-09-19T13:43:40.461Z,25.62
2018-09-19T13:46:09.965Z,25.40
2018-09-19T13:48:39.712Z,25.29
2018-09-19T13:51:15.520Z,25.32
2018-09-19T13:53:44.765Z,25.40
2018-09-19T13:56:13.418Z,25.37
2018-09-19T13:58:42.015Z,25.37
2018-09-19T14:01:10.928Z,25.36
2018-09-19T14:03:40.558Z,25.22
2018-09-19T14:06:09.500Z,25.22
2018-09-19T14:08:38.517Z,25.26
2018-09-19T14:11:07.184Z,25.17
2018-09-19T14:13:36.658Z,25.22
2018-09-19T14:16:05.752Z,25.19
2018-09-19T14:18:34.635Z,25.09
2018-09-19T14:21:03.280Z,24.95
2018-09-19T14:23:31.869Z,24.88
2018-09-19T14:26:00.302Z,24.94
2018-09-19T14:28:28.930Z,25.04
2018-09-19T14:30:57.739Z,24.74
2018-09-19T14:33:26.414Z,24.89
2018-09-19T14:35:54.986Z,24.76
2018-09-19T14:38:23.839Z,24.69
2018-09-19T14:40:52.277Z,24.57
2018-09-19T14:43:20.952Z,24.55
2018-09-19T14:45:49.449Z,24.54
2018-09-19T14:48:17.962Z,24.44
2018-09-19T14:50:46.695Z,24.35
2018-09-19T14:53:15.347Z,24.35
2018-09-19T14:55:43.938Z,24.35
2018-09-19T14:58:12.679Z,24.28
2018-09-19T15:00:41.508Z,24.11
2018-09-19T15:03:10.059Z,23.94
2018-09-19T15:05:38.652Z,23.86
2018-09-19T15:08:07.196Z,23.72
2018-09-19T15:10:35.621Z,23.70
2018-09-19T15:13:04.216Z,23.59
2018-09-19T15:15:32.795Z,23.44
2018-09-19T15:18:01.395Z,23.36
2018-09-19T15:20:29.594Z,23.17
2018-09-19T15:22:57.686Z,23.11
2018-09-19T15:25:25.892Z,22.70
2018-09-19T15:27:54.104Z,22.70
2018-09-19T15:30:22.293Z,22.51
2018-09-19T15:32:50.528Z,22.39
2018-09-19T15:35:18.673Z,22.38
2018-09-19T15:37:46.929Z,22.10
2018-09-19T15:40:15.113Z,21.92
2018-09-19T15:42:43.301Z,21.85
2018-09-19T15:45:11.756Z,21.64
2018-09-19T15:47:39.789Z,21.55
2018-09-19T15:50:08.053Z,21.51
2018-09-19T15:52:36.307Z,21.25
2018-09-19T15:55:05.047Z,21.53
2018-09-19T15:57:33.608Z,21.47
2018-09-19T16:00:02.561Z,21.19
2018-09-19T16:02:30.972Z,20.94
2018-09-19T16:04:59.162Z,20.90
2018-09-19T16:07:27.551Z,20.69
2018-09-19T16:09:55.765Z,20.71
2018-09-19T16:12:25.567Z,20.63
2018-09-19T16:14:55.334Z,20.45
2018-09-19T16:17:25.577Z,20.35
2018-09-19T16:19:54.627Z,20.34
2018-09-19T16:22:23.047Z,20.40
2018-09-19T16:24:52.509Z,20.33
2018-09-19T16:27:21.605Z,20.13
2018-09-19T16:29:49.915Z,20.11
2018-09-19T16:32:18.090Z,20.04
2018-09-19T16:34:47.754Z,19.95
2018-09-19T16:37:18.074Z,19.98
2018-09-19T16:39:46.651Z,20.07
2018-09-19T16:42:16.642Z,19.74
2018-09-19T16:44:45.787Z,19.84
2018-09-19T16:47:14.978Z,19.74
2018-09-19T16:49:43.531Z,19.58
2018-09-19T16:52:13.543Z,19.64
2018-09-19T16:54:41.728Z,19.46
2018-09-19T16:57:10.111Z,19.30
2018-09-19T16:59:38.331Z,19.16
2018-09-19T17:02:06.734Z,19.20
2018-09-19T17:04:34.965Z,18.99
2018-09-19T17:07:03.416Z,19.15
2018-09-19T17:09:31.886Z,19.11
2018-09-19T17:12:00.141Z,19.09
2018-09-19T17:14:29.721Z,19.05
2018-09-19T17:16:57.948Z,19.28
2018-09-19T17:19:26.406Z,19.06
2018-09-19T17:21:54.562Z,18.92
2018-09-19T17:24:23.146Z,18.98
2018-09-19T17:26:51.364Z,18.72
2018-09-19T17:29:20.138Z,18.48
2018-09-19T17:31:49.549Z,18.27
2018-09-19T17:34:18.113Z,18.33
2018-09-19T17:36:46.862Z,18.25
2018-09-19T17:39:15.143Z,18.13
2018-09-19T17:41:43.497Z,18.04
2018-09-19T17:44:12.092Z,17.94
2018-09-19T17:46:40.689Z,18.05
2018-09-19T17:49:09.502Z,18.23
2018-09-19T17:51:37.868Z,18.00
2018-09-19T17:54:07.197Z,17.74
2018-09-19T17:56:35.782Z,17.64
2018-09-19T17:59:04.393Z,17.85
2018-09-19T18:01:32.624Z,17.95
2018-09-19T18:04:01.294Z,17.60
2018-09-19T18:06:29.561Z,17.95
2018-09-19T18:08:57.787Z,17.56
2018-09-19T18:11:26.323Z,17.30
2018-09-19T18:13:54.511Z,17.33
2018-09-19T18:16:22.962Z,17.40
2018-09-19T18:18:51.177Z,17.58
2018-09-19T18:21:19.331Z,17.36
2018-09-19T18:23:47.574Z,17.60
2018-09-19T18:26:15.795Z,17.81
2018-09-19T18:28:44.097Z,17.43
2018-09-19T18:31:12.291Z,17.25
2018-09-19T18:33:40.763Z,16.89
2018-09-19T18:36:09.164Z,16.66
2018-09-19T18:38:37.434Z,16.65
2018-09-19T18:41:05.721Z,16.54
2018-09-19T18:43:34.037Z,16.35
2018-09-19T18:46:02.229Z,16.29
2018-09-19T18:48:30.398Z,16.21
2018-09-19T18:50:58.572Z,16.21
2018-09-19T18:53:26.715Z,16.03
2018-09-19T18:55:54.831Z,15.90
2018-09-19T18:58:23.371Z,15.71
2018-09-19T19:00:51.470Z,15.74
2018-09-19T19:03:19.722Z,15.59
2018-09-19T19:05:47.825Z,15.53
2018-09-19T19:08:16.018Z,15.69
2018-09-19T19:10:44.176Z,15.60
2018-09-19T19:13:12.419Z,15.32
2018-09-19T19:15:40.672Z,15.38
2018-09-19T19:18:09.002Z,15.61
2018-09-19T19:20:37.399Z,15.73
2018-09-19T19:23:05.649Z,15.62
2018-09-19T19:25:33.900Z,15.97
2018-09-19T19:28:02.302Z,15.75
2018-09-19T19:30:30.585Z,15.73
2018-09-19T19:32:58.884Z,15.89
2018-09-19T19:35:27.319Z,16.09
2018-09-19T19:37:55.563Z,15.89
2018-09-19T19:40:23.831Z,15.45
2018-09-19T19:42:52.081Z,15.40
2018-09-19T19:45:20.469Z,15.42
2018-09-19T19:47:49.708Z,15.59
2018-09-19T19:50:17.916Z,15.25
2018-09-19T19:52:46.127Z,15.01
2018-09-19T19:55:14.463Z,14.88
2018-09-19T19:57:42.728Z,14.71
2018-09-19T20:00:11.073Z,14.69
2018-09-19T20:02:39.345Z,14.55
2018-09-19T20:05:07.850Z,14.52
2018-09-19T20:07:36.199Z,14.42
2018-09-19T20:10:04.598Z,14.35
2018-09-19T20:12:32.993Z,14.23
2018-09-19T20:15:01.255Z,14.13
2018-09-19T20:17:29.548Z,14.01
2018-09-19T20:19:57.886Z,13.95
2018-09-19T20:22:26.216Z,13.91
2018-09-19T20:24:54.844Z,13.81
2018-09-19T20:27:25.528Z,13.75
2018-09-19T20:29:56.252Z,13.80
2018-09-19T20:32:25.375Z,13.85
2018-09-19T20:34:56.278Z,13.77
2018-09-19T20:37:27.427Z,13.62
2018-09-19T20:39:56.545Z,13.51
2018-09-19T20:42:26.378Z,13.49
2018-09-19T20:44:55.575Z,13.42
2018-09-19T20:47:24.007Z,13.39
2018-09-19T20:49:52.272Z,13.36
2018-09-19T20:52:20.608Z,13.32
2018-09-19T20:54:50.365Z,13.28
2018-09-19T20:57:21.345Z,13.30
2018-09-19T20:59:49.935Z,13.26
2018-09-19T21:02:18.213Z,13.23
2018-09-19T21:07:44.688Z,13.19
2018-09-19T21:10:12.846Z,13.16
2018-09-19T21:12:41.016Z,13.14
2018-09-19T21:15:09.315Z,13.08
2018-09-19T21:17:37.517Z,13.06
2018-09-19T21:20:05.787Z,12.99
2018-09-19T21:22:34.197Z,12.96
2018-09-19T21:25:02.392Z,12.96
2018-09-19T21:27:30.621Z,12.94
2018-09-19T21:29:58.766Z,12.95
2018-09-19T21:32:26.974Z,12.97
2018-09-19T21:34:55.237Z,12.92
2018-09-19T21:37:23.454Z,12.87
2018-09-19T21:39:51.687Z,12.83
2018-09-19T21:42:19.833Z,12.77
2018-09-19T21:44:48.089Z,12.73
2018-09-19T21:47:16.225Z,12.70
2018-09-19T21:49:44.438Z,12.64
2018-09-19T21:52:12.597Z,12.60
2018-09-19T21:54:40.780Z,12.54
2018-09-19T21:57:09.130Z,12.48
2018-09-19T21:59:37.318Z,12.41
2018-09-19T22:02:05.476Z,12.37
2018-09-19T22:04:33.649Z,12.38
2018-09-19T22:07:01.830Z,12.36
2018-09-19T22:09:30.331Z,12.32
2018-09-19T22:11:58.968Z,12.32
2018-09-19T22:14:27.732Z,12.29
2018-09-19T22:16:56.224Z,12.25
2018-09-19T22:19:24.764Z,12.23
2018-09-19T22:21:53.240Z,12.16
2018-09-19T22:24:21.664Z,12.08
2018-09-19T22:26:50.145Z,12.07
2018-09-19T22:29:18.468Z,12.05
2018-09-19T22:31:46.889Z,12.04
2018-09-19T22:34:15.747Z,11.99
2018-09-19T22:36:44.333Z,11.93
2018-09-19T22:39:12.777Z,11.89
2018-09-19T22:41:41.270Z,11.86
2018-09-19T22:44:09.724Z,11.89
2018-09-19T22:46:38.143Z,11.88
2018-09-19T22:49:06.614Z,11.83
2018-09-19T22:51:34.947Z,11.79
2018-09-19T22:54:03.634Z,11.80
2018-09-19T22:56:31.953Z,11.78
2018-09-19T22:59:00.272Z,11.74
2018-09-19T23:01:28.620Z,11.74
2018-09-19T23:03:57.119Z,11.72
2018-09-19T23:06:25.529Z,11.68
2018-09-19T23:08:53.942Z,11.80
2018-09-19T23:11:22.422Z,11.78
2018-09-19T23:13:50.883Z,11.72
2018-09-19T23:16:19.326Z,11.65
2018-09-19T23:18:47.780Z,11.55
2018-09-19T23:21:16.101Z,11.53
2018-09-19T23:23:44.618Z,11.50
2018-09-19T23:26:13.043Z,11.49
2018-09-19T23:28:41.665Z,11.41
2018-09-19T23:31:10.202Z,11.33
2018-09-19T23:33:38.646Z,11.31
2018-09-19T23:36:07.137Z,11.26
2018-09-19T23:38:35.645Z,11.28
2018-09-19T23:41:04.035Z,11.30
2018-09-19T23:43:32.349Z,11.27
2018-09-19T23:46:00.793Z,11.22
2018-09-19T23:48:29.185Z,11.20
2018-09-19T23:50:57.523Z,11.09
2018-09-19T23:53:25.922Z,11.00
2018-09-19T23:55:54.327Z,11.05
2018-09-19T23:58:22.657Z,11.02
